createdAt,value
2018-09-24T04:22:26.147Z,82.78
2018-09-24T04:36:04.034Z,83.45
2018-09-24T04:37:01.791Z,84.12
2018-09-24T04:38:00.700Z,83.64
2018-09-24T04:38:59.279Z,83.93
2018-09-24T04:39:58.712Z,83.73
2018-09-24T04:40:57.726Z,83.83
2018-09-24T04:41:56.408Z,83.45
2018-09-24T04:42:55.168Z,83.93
2018-09-24T04:43:54.084Z,83.64
2018-09-24T04:44:52.738Z,83.64
2018-09-24T04:45:51.290Z,83.64
2018-09-24T04:48:15.097Z,84.59
2018-09-24T04:49:14.163Z,84.02
2018-09-24T04:50:12.848Z,84.46
2018-09-24T04:51:11.767Z,84.59
2018-09-24T04:52:10.405Z,84.27
2018-09-24T04:53:09.168Z,84.31
2018-09-24T04:54:08.047Z,84.65
2018-09-24T04:57:47.301Z,84.65
2018-09-24T04:58:46.432Z,84.36
2018-09-24T05:01:26.758Z,84.36
2018-09-24T05:02:25.348Z,84.36
2018-09-24T05:03:23.812Z,84.55
2018-09-24T05:04:22.698Z,85.13
2018-09-24T05:05:22.504Z,85.03
2018-09-24T05:06:20.622Z,85.13
2018-09-24T05:07:19.355Z,84.84
2018-09-24T05:08:18.233Z,84.55
2018-09-24T05:09:16.822Z,85.61
2018-09-24T05:10:16.117Z,85.71
2018-09-24T05:11:16.180Z,85.75
2018-09-24T05:12:14.810Z,86.47
2018-09-24T05:13:14.016Z,90.67
2018-09-24T05:15:54.409Z,95.07
2018-09-24T05:16:53.192Z,96.32
2018-09-24T05:19:45.868Z,98
2018-09-24T05:20:44.691Z,98.33
2018-09-24T05:21:43.464Z,96.13
2018-09-24T05:35:11.382Z,98.86
2018-09-24T05:36:07.450Z,97.9
2018-09-24T05:37:06.312Z,96.94
2018-09-24T05:39:46.655Z,96.56
2018-09-24T05:40:45.754Z,97.61
2018-09-24T05:41:44.675Z,94.74
2018-09-24T05:42:43.695Z,94.5
2018-09-24T05:43:42.908Z,93.26
2018-09-24T05:44:41.672Z,94.31
2018-09-24T05:50:03.131Z,93.55
2018-09-24T05:51:01.994Z,92.49
2018-09-24T05:52:00.793Z,92.21
2018-09-24T05:59:03.714Z,93.16
2018-09-24T06:01:43.933Z,94.79
2018-09-24T06:04:24.564Z,95.03
2018-09-24T06:07:05.166Z,94.65
2018-09-24T06:11:35.926Z,91.87
2018-09-24T06:12:30.165Z,98.43
2018-09-24T06:13:29.176Z,98.24
2018-09-24T06:14:29.258Z,98.24
2018-09-24T06:17:09.780Z,94.89
2018-09-24T06:20:50.625Z,99.99
2018-09-24T06:24:31.140Z,99.99
2018-09-24T06:27:11.501Z,93.4
2018-09-24T06:28:10.349Z,96.84
2018-09-24T06:33:31.726Z,93.21
2018-09-24T06:35:33.032Z,91.25
2018-09-24T06:37:49.353Z,89.33
2018-09-24T06:38:49.436Z,94.12
2018-09-24T06:39:48.398Z,92.49
2018-09-24T06:40:47.270Z,93.11
2018-09-24T06:41:46.045Z,90.43
2018-09-24T06:42:44.949Z,88.03
2018-09-24T06:43:43.789Z,88.9
2018-09-24T06:44:42.481Z,90.91
2018-09-24T06:45:41.462Z,88.8
2018-09-24T06:46:40.361Z,89.09
2018-09-24T06:47:38.829Z,89.76
2018-09-24T06:48:38.178Z,90.33
2018-09-24T06:49:37.475Z,90.53
2018-09-24T06:50:36.078Z,88.94
2018-09-24T06:51:34.671Z,90.62
2018-09-24T06:52:33.542Z,94.02
2018-09-24T06:53:32.332Z,94.5
2018-09-24T06:54:31.075Z,93.63
2018-09-24T06:55:29.985Z,89.9
2018-09-24T06:56:28.865Z,89.61
2018-09-24T06:57:27.577Z,84.91
2018-09-24T06:58:27.385Z,96.22
2018-09-24T06:59:26.193Z,95.17
2018-09-24T07:00:25.047Z,92.91
2018-09-24T07:01:24.033Z,97.81
2018-09-24T07:04:04.929Z,87.5
2018-09-24T07:05:03.640Z,97.71
2018-09-24T07:06:02.353Z,95.03
2018-09-24T07:07:01.126Z,93.59
2018-09-24T07:08:00.249Z,92.34
2018-09-24T07:08:59.243Z,95.36
2018-09-24T07:10:00.256Z,93.68
2018-09-24T07:11:00.217Z,93.35
2018-09-24T07:11:59.191Z,96.66
2018-09-24T07:12:58.171Z,92.44
2018-09-24T07:15:38.571Z,95.03
2018-09-24T07:16:37.229Z,95.21
2018-09-24T07:17:36.191Z,91.96
2018-09-24T07:18:35.079Z,91.77
2018-09-24T07:19:33.996Z,89.37
2018-09-24T07:20:32.942Z,89.18
2018-09-24T07:21:31.732Z,89.56
2018-09-24T07:22:30.333Z,88.7
2018-09-24T07:23:29.391Z,88.7
2018-09-24T07:24:28.631Z,88.41
2018-09-24T07:25:26.997Z,89.47
2018-09-24T07:26:25.922Z,91.81
2018-09-24T07:27:24.759Z,88.84
2018-09-24T07:28:23.993Z,85.05
2018-09-24T07:29:22.557Z,87.16
2018-09-24T07:30:21.523Z,87.74
2018-09-24T07:31:19.996Z,85.44
2018-09-24T07:32:18.774Z,84.95
2018-09-24T07:43:33.793Z,87.16
2018-09-24T07:44:32.207Z,91.67
2018-09-24T07:45:30.749Z,91
2018-09-24T07:46:29.437Z,86.54
2018-09-24T07:47:28.231Z,87.4
2018-09-24T07:48:26.665Z,89.51
2018-09-24T07:49:25.604Z,91.81
2018-09-24T07:50:24.444Z,91.33
2018-09-24T07:53:04.694Z,91.81
2018-09-24T07:54:03.376Z,93.63
2018-09-24T07:55:02.604Z,92.29
2018-09-24T07:56:01.221Z,91.24
2018-09-24T07:57:00.150Z,87.49
2018-09-24T07:57:59.526Z,82.98
2018-09-24T07:58:57.901Z,85.58
2018-09-24T07:59:56.570Z,85.67
2018-09-24T08:00:55.256Z,89.12
2018-09-24T08:01:54.015Z,92.39
2018-09-24T08:02:52.708Z,92.39
2018-09-24T08:03:51.751Z,93.73
2018-09-24T08:04:51.093Z,90.75
2018-09-24T08:05:49.943Z,87.4
2018-09-24T08:06:49.024Z,86.15
2018-09-24T08:07:48.004Z,84.81
2018-09-24T08:08:47.040Z,85.19
2018-09-24T08:09:46.055Z,89.32
2018-09-24T08:10:45.069Z,85.77
2018-09-24T08:13:26.355Z,86.54
2018-09-24T08:14:24.952Z,86.25
2018-09-24T08:15:23.765Z,86.82
2018-09-24T08:16:22.697Z,87.59
2018-09-24T08:17:21.981Z,88.26
2018-09-24T08:18:20.638Z,87.35
2018-09-24T08:19:19.288Z,84.95
2018-09-24T08:20:18.191Z,90.9
2018-09-24T08:21:17.010Z,86.29
2018-09-24T08:41:39.026Z,77.26
2018-09-24T08:42:37.871Z,72.47
2018-09-24T08:45:18.249Z,71.57
2018-09-24T08:47:58.582Z,82.41
2018-09-24T08:48:57.087Z,77.23
2018-09-24T08:49:56.584Z,74.54
2018-09-24T08:50:55.881Z,76.07
2018-09-24T08:51:54.964Z,78.03
2018-09-24T08:52:53.995Z,78.67
2018-09-24T08:53:52.706Z,83.22
2018-09-24T08:54:51.716Z,81.64
2018-09-24T08:55:51.021Z,85.96
2018-09-24T08:56:49.902Z,80.3
2018-09-24T08:57:48.790Z,79.72
2018-09-24T08:58:47.234Z,79.09
2018-09-24T09:01:27.462Z,77.56
2018-09-24T09:02:26.288Z,81.1
2018-09-24T09:03:24.784Z,77.59
2018-09-24T09:06:05.383Z,68.85
2018-09-24T09:07:04.389Z,68.47
2018-09-24T09:08:03.465Z,73.37
2018-09-24T09:10:01.948Z,74.43
2018-09-24T09:11:01.861Z,71.35
2018-09-24T09:12:00.733Z,69.62
2018-09-24T09:12:59.194Z,70.29
2018-09-24T09:13:58.532Z,74.13
2018-09-24T09:14:57.162Z,75.87
2018-09-24T09:17:15.056Z,77.56
2018-09-24T09:18:17.623Z,78.7
2018-09-24T09:19:16.637Z,82.35
2018-09-24T09:20:15.417Z,82.03
2018-09-24T09:21:14.123Z,79.63
2018-09-24T09:22:12.790Z,78.86
2018-09-24T09:23:11.795Z,78.61
2018-09-24T09:24:10.674Z,79.86
2018-09-24T09:25:09.230Z,76.79
2018-09-24T09:26:07.952Z,75.06
2018-09-24T09:27:06.637Z,74.58
2018-09-24T09:28:05.176Z,74.01
2018-09-24T09:29:04.023Z,77.08
2018-09-24T09:30:02.595Z,77.33
2018-09-24T09:31:01.243Z,78.67
2018-09-24T09:31:59.877Z,74.01
2018-09-24T09:32:58.844Z,71.22
2018-09-24T09:33:58.045Z,71.89
2018-09-24T09:34:56.849Z,69.4
2018-09-24T09:35:55.490Z,64.59
2018-09-24T09:36:54.053Z,65.17
2018-09-24T09:37:52.724Z,68.73
2018-09-24T09:38:51.272Z,65.46
2018-09-24T09:39:50.331Z,65.3
2018-09-24T09:40:49.041Z,65.01
2018-09-24T09:41:47.924Z,66.74
2018-09-24T09:42:46.536Z,63.76
2018-09-24T09:43:45.379Z,63.96
2018-09-24T09:44:44.063Z,64.43
2018-09-24T09:45:42.758Z,65.2
2018-09-24T09:46:41.365Z,65.49
2018-09-24T09:47:40.493Z,62.71
2018-09-24T09:48:39.166Z,67.51
2018-09-24T09:49:37.934Z,67.61
2018-09-24T09:50:36.576Z,61.55
2018-09-24T09:51:35.190Z,65.84
2018-09-24T09:52:33.773Z,64.4
2018-09-24T09:53:32.655Z,63.35
2018-09-24T09:56:13.536Z,78.52
2018-09-24T09:57:12.195Z,76.69
2018-09-24T09:58:10.946Z,74.58
2018-09-24T09:59:09.828Z,77.56
2018-09-24T10:00:08.845Z,82.64
2018-09-24T10:02:49.230Z,73.27
2018-09-24T10:03:48.027Z,68.57
2018-09-24T10:04:46.708Z,65.81
2018-09-24T10:05:46.239Z,62.74
2018-09-24T10:08:08.141Z,62.13
2018-09-24T10:09:06.810Z,68.51
2018-09-24T10:10:05.383Z,64.47
2018-09-24T10:11:04.215Z,61.58
2018-09-24T10:12:02.706Z,65.43
2018-09-24T10:13:01.511Z,74.17
2018-09-24T10:14:00.245Z,64.95
2018-09-24T10:14:58.840Z,62.64
2018-09-24T10:17:39.331Z,70.72
2018-09-24T10:18:37.960Z,76.64
2018-09-24T10:19:37.746Z,66.36
2018-09-24T10:20:36.243Z,71.39
2018-09-24T10:21:35.144Z,81.48
2018-09-24T10:22:33.920Z,81.19
2018-09-24T10:23:32.705Z,79.65
2018-09-24T10:24:31.226Z,78.3
2018-09-24T10:25:30.300Z,83.2
2018-09-24T10:26:28.899Z,79.94
2018-09-24T10:27:27.763Z,74.17
2018-09-24T10:30:08.069Z,80.65
2018-09-24T10:31:06.916Z,75.75
2018-09-24T10:32:05.465Z,74.98
2018-09-24T10:33:04.342Z,73.41
2018-09-24T10:34:03.056Z,72.54
2018-09-24T10:35:01.731Z,67.07
2018-09-24T10:36:00.375Z,79.36
2018-09-24T10:36:59.231Z,71.77
2018-09-24T10:37:58.445Z,65.43
2018-09-24T10:41:47.816Z,65.81
2018-09-24T10:42:46.307Z,69.95
2018-09-24T10:43:45.030Z,72.06
2018-09-24T10:44:43.558Z,67.83
2018-09-24T10:45:42.215Z,73.69
2018-09-24T10:49:20.995Z,71.55
2018-09-24T10:50:19.541Z,75.1
2018-09-24T10:51:18.104Z,72.54
2018-09-24T10:52:16.818Z,65.23
2018-09-24T10:53:15.574Z,62.87
2018-09-24T10:54:14.400Z,71.48
2018-09-24T10:55:13.163Z,74.85
2018-09-24T10:56:11.781Z,68.51
2018-09-24T10:58:52.089Z,66.81
2018-09-24T10:59:51.319Z,64.31
2018-09-24T11:00:50.277Z,71.52
2018-09-24T11:01:49.018Z,74.69
2018-09-24T11:02:47.767Z,71.23
2018-09-24T11:03:46.293Z,74.4
2018-09-24T11:04:45.031Z,74.11
2018-09-24T11:05:43.936Z,74.5
2018-09-24T11:06:42.809Z,65.62
2018-09-24T11:07:41.613Z,60.24
2018-09-24T11:08:40.363Z,72.44
2018-09-24T11:09:39.405Z,65.05
2018-09-24T11:10:38.247Z,74.37
2018-09-24T11:11:36.982Z,74.27
2018-09-24T11:12:35.785Z,75.38
2018-09-24T11:13:34.311Z,69.62
2018-09-24T11:14:32.798Z,65.69
2018-09-24T11:17:13.555Z,65.59
2018-09-24T11:18:12.105Z,64.22
2018-09-24T11:23:32.903Z,71.93
2018-09-24T11:24:31.470Z,72.64
2018-09-24T11:25:30.060Z,74.04
2018-09-24T11:27:27.267Z,70.9
2018-09-24T11:28:26.090Z,73.69
2018-09-24T11:29:24.866Z,70.58
2018-09-24T11:30:23.380Z,67.61
2018-09-24T11:31:21.969Z,72.06
2018-09-24T11:32:20.757Z,71.48
2018-09-24T11:33:19.388Z,73.21
2018-09-24T11:34:18.162Z,74.17
2018-09-24T11:35:16.907Z,70.43
2018-09-24T11:37:57.217Z,63.32
2018-09-24T11:38:56.267Z,61.68
2018-09-24T11:39:54.912Z,59.86
2018-09-24T11:40:53.635Z,54.64
2018-09-24T11:41:52.295Z,60.5
2018-09-24T11:42:51.314Z,58.22
2018-09-24T11:43:49.905Z,57.75
2018-09-24T11:44:48.638Z,60.24
2018-09-24T11:45:47.188Z,59.09
2018-09-24T11:46:45.897Z,61.4
2018-09-24T11:47:44.419Z,58.89
2018-09-24T11:48:43.011Z,60.34
2018-09-24T11:49:41.596Z,60.43
2018-09-24T11:50:40.642Z,55.44
2018-09-24T11:51:39.214Z,54.6
2018-09-24T11:52:37.743Z,57.45
2018-09-24T11:53:36.547Z,55.82
2018-09-24T11:54:35.485Z,62.93
2018-09-24T11:55:35.068Z,57.77
2018-09-24T11:56:33.719Z,54.47
2018-09-24T11:57:32.613Z,56.62
2018-09-24T11:58:31.846Z,57.55
2018-09-24T11:59:30.510Z,60.43
2018-09-24T12:00:29.155Z,65.2
2018-09-24T12:01:27.964Z,65.4
2018-09-24T12:02:26.988Z,64.15
2018-09-24T12:03:25.569Z,64.43
2018-09-24T12:04:24.407Z,62.81
2018-09-24T12:05:23.188Z,62.32
2018-09-24T12:08:04.741Z,60.34
2018-09-24T12:09:03.589Z,55.69
2018-09-24T12:10:03.215Z,53.8
2018-09-24T12:11:01.777Z,52.08
2018-09-24T12:12:00.605Z,50.82
2018-09-24T12:12:59.092Z,50.92
2018-09-24T12:13:57.786Z,51.69
2018-09-24T12:14:56.408Z,52.97
2018-09-24T12:15:55.244Z,51.81
2018-09-24T12:36:25.199Z,49.99
2018-09-24T12:37:23.889Z,49.72
2018-09-24T12:38:22.551Z,50.01
2018-09-24T12:39:21.152Z,49.15
2018-09-24T12:40:19.954Z,49.82
2018-09-24T12:41:19.317Z,49.05
2018-09-24T12:42:18.087Z,48.76
2018-09-24T12:43:17.070Z,49.15
2018-09-24T12:44:16.748Z,49.91
2018-09-24T12:45:16.370Z,50.61
2018-09-24T12:46:19.537Z,50.9
2018-09-24T12:47:18.816Z,50.23
2018-09-24T12:48:16.924Z,50.01
2018-09-24T12:49:16.041Z,50.01
2018-09-24T12:50:15.567Z,48.66
2018-09-24T12:51:15.452Z,47.61
2018-09-24T12:52:14.123Z,48.57
2018-09-24T12:53:13.382Z,48.95
2018-09-24T12:54:12.885Z,48.08
2018-09-24T12:55:11.996Z,47.61
2018-09-24T12:56:10.971Z,48.57
2018-09-24T12:57:10.029Z,47.99
2018-09-24T12:58:09.391Z,47.51
2018-09-24T12:59:07.676Z,48.25
2018-09-24T13:00:06.964Z,48.08
2018-09-24T13:01:06.220Z,47.89
2018-09-24T13:02:05.446Z,48.38
2018-09-24T13:03:04.471Z,48.49
2018-09-24T13:04:03.464Z,48.21
2018-09-24T13:05:01.991Z,48.4
2018-09-24T13:06:00.843Z,48.59
2018-09-24T13:06:59.962Z,47.24
2018-09-24T14:34:01.374Z,46.89
2018-09-24T14:34:57.666Z,47.27
2018-09-24T14:35:56.579Z,47.85
2018-09-24T14:38:36.897Z,48.23
2018-09-24T14:39:35.613Z,48.43
2018-09-24T14:40:34.467Z,48.43
2018-09-24T14:44:13.229Z,49
2018-09-24T14:45:12.103Z,49
2018-09-24T14:48:51.716Z,48.52
2018-09-24T14:49:50.520Z,48.04
2018-09-24T14:50:49.273Z,47.46
2018-09-24T14:51:48.303Z,47.56
2018-09-24T14:52:46.825Z,47.94
2018-09-24T14:53:45.782Z,47.56
2018-09-24T14:54:44.334Z,47.27
2018-09-24T14:55:43.000Z,48.23
2018-09-24T14:56:41.699Z,48.23
2018-09-24T14:57:40.656Z,48.52
2018-09-24T14:58:39.198Z,48.43
2018-09-24T15:01:01.768Z,48.23
2018-09-24T15:02:00.379Z,48.23
2018-09-24T15:02:58.984Z,48.61
2018-09-24T15:03:57.574Z,48.43
2018-09-24T15:04:56.387Z,48.43
2018-09-24T15:05:55.099Z,48.61
2018-09-24T15:06:53.711Z,48.61
2018-09-24T15:07:52.612Z,48.52
2018-09-24T15:10:33.029Z,47.46
2018-09-24T15:11:31.761Z,48.52
2018-09-24T15:12:30.632Z,48.04
2018-09-24T15:13:29.371Z,48.33
2018-09-24T15:14:28.227Z,48.23
2018-09-24T15:15:27.083Z,48.43
2018-09-24T15:16:25.802Z,48.52
2018-09-24T15:17:24.502Z,48.33
2018-09-24T15:20:04.666Z,47.34
2018-09-24T15:38:46.933Z,48.49
2018-09-24T15:39:45.740Z,48.79
2018-09-24T15:42:30.021Z,48.4
2018-09-24T15:45:10.393Z,48.4
2018-09-24T15:46:09.076Z,48.4
2018-09-24T15:47:08.391Z,48.49
2018-09-24T15:48:07.122Z,48.69
2018-09-24T15:49:06.603Z,48.49
2018-09-24T15:50:05.255Z,48.88
2018-09-24T15:52:47.650Z,49.07
2018-09-24T15:53:46.705Z,49.26
2018-09-24T15:56:42.604Z,49.93
2018-09-24T15:57:41.191Z,49.17
2018-09-24T15:58:40.030Z,49.65
2018-09-24T16:01:20.923Z,49.07
2018-09-24T16:02:19.573Z,49.65
2018-09-24T16:05:00.209Z,49.93
2018-09-24T16:05:58.928Z,50.03
2018-09-24T16:08:21.641Z,49.46
2018-09-24T16:09:20.521Z,49.93
2018-09-24T16:11:17.132Z,50.23
2018-09-24T16:14:58.267Z,50.42
2018-09-24T16:15:57.024Z,50.7
2018-09-24T16:16:55.869Z,50.8
2018-09-24T16:17:54.616Z,50.8
2018-09-24T16:18:53.696Z,50.99
2018-09-24T16:21:34.210Z,50.99
2018-09-24T16:22:33.121Z,50.8
2018-09-24T16:23:31.809Z,50.9
2018-09-24T16:26:12.091Z,50.7
2018-09-24T16:44:27.008Z,51.73
2018-09-24T16:47:07.361Z,51.83
2018-09-24T16:48:05.913Z,51.45
2018-09-24T16:49:04.674Z,51.93
2018-09-24T16:50:03.370Z,51.35
2018-09-24T16:51:02.724Z,51.83
2018-09-24T16:52:01.406Z,52.12
2018-09-24T16:53:51.459Z,52.22
2018-09-24T16:54:53.242Z,52.02
2018-09-24T16:55:51.767Z,52.79
2018-09-24T16:56:50.761Z,52.98
2018-09-24T16:59:31.055Z,52.12
2018-09-24T17:00:29.893Z,52.12
2018-09-24T17:01:28.869Z,52.4
2018-09-24T17:02:27.827Z,52.4
2018-09-24T17:03:26.676Z,52.89
2018-09-24T17:04:25.185Z,52.89
2018-09-24T17:05:23.701Z,53.17
2018-09-24T17:06:22.688Z,52.98
2018-09-24T17:07:21.344Z,53.17
2018-09-24T17:08:20.115Z,52.86
2018-09-24T17:10:20.780Z,52.48
2018-09-24T17:11:19.425Z,53.27
2018-09-24T17:12:18.427Z,53.34
2018-09-24T17:13:17.136Z,53.34
2018-09-24T17:14:15.705Z,53.44
2018-09-24T17:15:14.701Z,52.95
2018-09-24T17:16:13.466Z,53.34
2018-09-24T17:17:12.280Z,53.63
2018-09-24T17:18:10.989Z,53.91
2018-09-24T17:40:05.083Z,56.7
2018-09-24T17:42:45.206Z,56.98
2018-09-24T17:43:44.067Z,57.37
2018-09-24T17:44:42.936Z,57.65
2018-09-24T17:45:41.617Z,57.65
2018-09-24T17:46:40.202Z,58.04
2018-09-24T17:47:38.723Z,58.23
2018-09-24T17:48:37.293Z,58.52
2018-09-24T17:49:36.078Z,59.19
2018-09-24T17:50:34.975Z,59.29
2018-09-24T17:51:33.566Z,59
2018-09-24T17:52:32.303Z,59.29
2018-09-24T17:53:30.885Z,58.81
2018-09-24T17:54:29.501Z,58.23
2018-09-24T17:55:28.234Z,58.14
2018-09-24T17:56:26.943Z,57.28
2018-09-24T17:57:25.592Z,56.79
2018-09-24T17:58:24.157Z,57.37
2018-09-24T17:59:22.715Z,57.85
2018-09-24T18:00:21.310Z,58.04
2018-09-24T18:01:19.825Z,58.23
2018-09-24T18:02:18.737Z,58.52
2018-09-24T18:03:17.351Z,59
2018-09-24T18:04:15.992Z,59.29
2018-09-24T18:05:14.701Z,59
2018-09-24T18:06:13.397Z,59.19
2018-09-24T18:07:12.392Z,59.48
2018-09-24T18:08:11.163Z,59.67
2018-09-24T18:09:09.798Z,59.29
2018-09-24T18:10:08.627Z,57.56
2018-09-24T18:11:07.287Z,56.89
2018-09-24T18:12:05.974Z,56.31
2018-09-24T18:13:04.813Z,57.15
2018-09-24T18:14:03.381Z,59.29
2018-09-24T18:15:01.983Z,59.58
2018-09-24T18:16:00.572Z,59.74
2018-09-24T18:16:59.293Z,59.96
2018-09-24T18:17:57.888Z,59.48
2018-09-24T18:18:56.849Z,59.19
2018-09-24T18:19:55.480Z,59.06
2018-09-24T18:20:53.980Z,59.26
2018-09-24T18:21:52.596Z,58.11
2018-09-24T18:22:51.268Z,59.45
2018-09-24T18:23:49.802Z,59.93
2018-09-24T18:24:48.560Z,60.35
2018-09-24T18:25:47.306Z,60.15
2018-09-24T18:26:45.839Z,59.96
2018-09-24T18:27:44.455Z,59.19
2018-09-24T18:28:43.221Z,58.52
2018-09-24T18:31:23.611Z,58.39
2018-09-24T18:32:22.278Z,58.81
2018-09-24T18:33:20.892Z,58.11
2018-09-24T18:34:19.480Z,58.11
2018-09-24T18:35:18.081Z,58.97
2018-09-24T18:36:16.752Z,58.78
2018-09-24T18:37:15.333Z,59.26
2018-09-24T18:38:13.888Z,59.06
2018-09-24T18:39:12.600Z,59.06
2018-09-24T18:48:34.542Z,58.87
2018-09-24T18:49:34.339Z,59.06
2018-09-24T18:50:33.123Z,58.91
2018-09-24T18:53:17.496Z,59.26
2018-09-24T18:54:16.395Z,58.97
2018-09-24T18:55:15.355Z,58.97
2018-09-24T18:58:54.423Z,59.26
2018-09-24T18:59:53.175Z,58.87
2018-09-24T19:00:52.089Z,58.78
2018-09-24T19:01:50.639Z,58.91
2018-09-24T19:02:49.546Z,58.62
2018-09-24T19:05:30.646Z,59.09
2018-09-24T19:06:29.519Z,59.36
2018-09-24T19:07:28.167Z,58.78
2018-09-24T19:08:27.535Z,59.06
2018-09-24T19:09:26.563Z,59.16
2018-09-24T19:10:25.385Z,59.64
2018-09-24T19:13:05.732Z,59.96
2018-09-24T19:14:04.426Z,59.45
2018-09-24T19:15:03.254Z,59.58
2018-09-24T19:16:01.853Z,59.67
2018-09-24T19:18:42.440Z,59.96
2018-09-24T19:24:03.193Z,60.35
2018-09-24T19:25:02.058Z,60.6
2018-09-24T19:26:01.147Z,60.99
2018-09-24T19:26:59.965Z,61.27
2018-09-24T19:27:58.994Z,60.89
2018-09-24T19:34:53.124Z,62.52
2018-09-24T19:35:55.700Z,62.81
2018-09-24T19:36:54.784Z,62.23
2018-09-24T19:37:53.529Z,62.62
2018-09-24T19:40:45.983Z,62.9
2018-09-24T19:43:26.933Z,63.19
2018-09-24T19:44:25.821Z,63.19
2018-09-24T19:45:24.876Z,63.96
2018-09-24T19:49:05.459Z,64.05
2018-09-24T19:50:04.187Z,64.05
2018-09-24T19:52:44.740Z,64.53
2018-09-24T19:53:43.877Z,64.34
2018-09-24T19:54:42.693Z,64.25
2018-09-24T19:55:41.445Z,64.05
2018-09-24T19:56:41.581Z,64.22
2018-09-24T19:59:21.694Z,64.25
2018-09-24T20:02:02.240Z,63.96
2018-09-24T20:17:10.098Z,64.22
2018-09-24T20:18:08.862Z,64.22
2018-09-24T20:19:07.534Z,63.54
2018-09-24T20:20:06.183Z,63.06
2018-09-24T20:21:07.353Z,63.16
2018-09-24T20:22:05.970Z,63.45
2018-09-24T20:23:04.955Z,63.83
2018-09-24T20:24:03.684Z,64.12
2018-09-24T20:25:02.409Z,63.54
2018-09-24T20:26:01.033Z,64.12
2018-09-24T20:30:23.270Z,64.12
2018-09-24T20:32:33.686Z,64.22
2018-09-24T20:33:33.712Z,64.12
2018-09-24T20:34:32.404Z,64.22
2018-09-24T20:35:31.126Z,64.47
2018-09-24T20:36:30.550Z,64.85
2018-09-24T20:37:29.361Z,65.33
2018-09-24T20:38:28.056Z,65.42
2018-09-24T20:39:26.699Z,65.52
2018-09-24T20:40:25.152Z,65.52
2018-09-24T20:41:23.784Z,65.23
2018-09-24T20:42:22.385Z,65.33
2018-09-24T20:43:21.212Z,66.38
2018-09-24T20:44:19.751Z,66.09
2018-09-24T20:46:10.191Z,66
2018-09-24T20:48:32.703Z,65.91
2018-09-24T20:49:31.662Z,66.38
2018-09-24T20:50:30.390Z,66.09
2018-09-24T20:53:11.212Z,65.14
2018-09-24T20:54:09.877Z,65.52
2018-09-24T20:55:08.804Z,65.23
2018-09-24T20:56:07.455Z,65.14
2018-09-24T20:57:06.687Z,65.42
2018-09-24T20:59:47.637Z,65.52
2018-09-24T21:17:02.943Z,66.93
2018-09-24T21:18:01.696Z,66.58
2018-09-24T21:19:00.328Z,66.35
2018-09-24T21:22:13.237Z,66.38
2018-09-24T21:23:13.020Z,66.67
2018-09-24T21:24:11.691Z,66.38
2018-09-24T21:26:52.132Z,66.35
2018-09-24T21:27:51.053Z,66.74
2018-09-24T21:28:49.922Z,67.02
2018-09-24T21:29:48.659Z,66.74
2018-09-24T21:35:09.442Z,67.11
2018-09-24T21:36:08.052Z,67.11
2018-09-24T21:38:48.364Z,66.86
2018-09-24T21:39:47.476Z,66.96
2018-09-24T21:40:46.204Z,66.93
2018-09-24T21:41:44.958Z,67.41
2018-09-24T21:42:43.707Z,67.5
2018-09-24T21:46:23.186Z,67.6
2018-09-24T21:47:21.560Z,67.98
2018-09-24T21:48:20.276Z,68.17
2018-09-24T21:50:10.449Z,68.46
2018-09-24T21:52:50.734Z,68.27
2018-09-24T21:58:11.481Z,68.74
2018-09-24T22:00:05.271Z,68.27
2018-09-24T22:01:03.947Z,68.27
2018-09-24T22:02:02.611Z,69.03
2018-09-24T22:03:01.518Z,68.94
2018-09-24T22:04:00.108Z,68.74
2018-09-24T22:04:59.004Z,68.36
2018-09-24T22:07:39.458Z,68.94
2018-09-24T22:08:38.100Z,68.46
2018-09-24T22:09:37.112Z,69.23
2018-09-24T22:10:35.876Z,69.42
2018-09-24T22:11:34.562Z,68.55
2018-09-24T22:12:33.682Z,68.74
2018-09-24T22:13:32.316Z,68.55
2018-09-24T22:16:13.199Z,68.65
2018-09-24T22:17:11.170Z,68.74
2018-09-24T22:18:10.051Z,69.23
2018-09-24T22:20:50.185Z,69.7
2018-09-24T22:43:45.481Z,70.81
